Time;durP1;ratioP1;P1;durP2;ratioP2;P2;SDS_P1;SDS_P2;PMS_P1;PMS_P2;Temp;Humidity;BMP_temperature;BMP_pressure;BME280_temperature;BME280_humidity;BME280_pressure;Samples;Min_cycle;Max_cycle;Signal;HPM_P1;HPM_P2
2023/05/08 00:00:07;;;;;;;108.75;75.35;;;13.80;89.90;;;;;;5005530;28;20045;-80
2023/05/08 00:02:33;;;;;;;100.65;71.45;;;13.80;89.90;;;;;;5005192;28;20030;-81
2023/05/08 00:04:58;;;;;;;100.05;72.97;;;13.80;89.90;;;;;;5002754;28;20033;-81
2023/05/08 00:07:24;;;;;;;106.70;73.30;;;13.70;89.90;;;;;;5005427;28;20034;-82
2023/05/08 00:09:50;;;;;;;101.65;71.00;;;13.70;89.90;;;;;;5001417;28;20037;-81
2023/05/08 00:12:15;;;;;;;98.63;70.05;;;13.70;90.00;;;;;;5003146;28;20030;-80
2023/05/08 00:14:41;;;;;;;89.57;64.82;;;13.70;90.00;;;;;;5004565;28;20057;-81
2023/05/08 00:17:13;;;;;;;87.13;63.05;;;13.70;90.00;;;;;;5000340;28;20060;-81
2023/05/08 00:19:39;;;;;;;95.65;67.00;;;13.70;89.90;;;;;;5005325;28;20034;-81
2023/05/08 00:22:05;;;;;;;91.32;63.53;;;13.70;89.80;;;;;;5000269;28;20041;-81
2023/05/08 00:24:30;;;;;;;90.07;64.78;;;13.70;89.90;;;;;;5001593;28;20052;-81
2023/05/08 00:26:56;;;;;;;86.63;62.65;;;13.70;89.80;;;;;;4999356;28;20041;-81
2023/05/08 00:29:22;;;;;;;92.20;60.35;;;13.70;89.90;;;;;;5004236;28;20030;-81
2023/05/08 00:31:47;;;;;;;93.35;60.53;;;13.70;90.10;;;;;;5000078;28;20106;-81
2023/05/08 00:34:13;;;;;;;102.85;63.35;;;13.70;90.40;;;;;;5000757;28;20125;-81
2023/05/08 00:36:39;;;;;;;99.00;61.42;;;13.70;90.30;;;;;;4998816;28;20034;-81
2023/05/08 00:39:04;;;;;;;115.95;61.28;;;13.80;90.40;;;;;;5013683;28;20088;-82
2023/05/08 00:41:30;;;;;;;117.75;61.15;;;13.90;90.30;;;;;;4983187;28;20064;-82
2023/05/08 00:43:56;;;;;;;116.43;57.35;;;13.90;90.50;;;;;;4999786;28;20030;-81
2023/05/08 00:46:21;;;;;;;111.38;56.50;;;13.90;90.60;;;;;;4982184;28;20049;-81
2023/05/08 00:48:47;;;;;;;127.47;59.95;;;14.00;90.50;;;;;;4978077;28;20030;-82
2023/05/08 00:51:15;;;;;;;111.88;56.10;;;14.00;90.40;;;;;;4991833;28;20050;-80
2023/05/08 00:53:44;;;;;;;114.95;56.58;;;14.00;90.40;;;;;;5005198;28;20044;-80
2023/05/08 00:56:12;;;;;;;119.00;57.92;;;14.10;90.30;;;;;;4990376;28;20038;-82
2023/05/08 00:58:39;;;;;;;105.82;55.28;;;14.10;90.20;;;;;;5005289;28;20123;-81
2023/05/08 01:01:05;;;;;;;113.35;56.45;;;14.10;90.20;;;;;;4990865;28;20041;-81
2023/05/08 01:03:32;;;;;;;106.35;54.25;;;14.10;90.00;;;;;;5003028;28;20017;-82
2023/05/08 01:05:58;;;;;;;116.95;56.17;;;14.10;90.00;;;;;;5004401;28;20038;-81
2023/05/08 01:08:24;;;;;;;122.38;58.38;;;14.10;89.90;;;;;;5003847;28;20505;-81
2023/05/08 01:11:12;;;;;;;126.93;59.03;;;14.10;90.10;;;;;;4997440;28;20147;-81
2023/05/08 01:13:47;;;;;;;121.82;58.08;;;14.10;90.10;;;;;;5001400;28;20037;-82
2023/05/08 01:16:15;;;;;;;;;;;14.10;89.90;;;;;;5002183;28;20033;-82
2023/05/08 01:18:52;;;;;;;151.27;64.47;;;14.10;90.00;;;;;;4995714;28;19909;-82
2023/05/08 01:21:53;;;;;;;141.73;63.38;;;14.10;90.20;;;;;;5002310;28;20479;-81
2023/05/08 01:24:41;;;;;;;145.65;63.92;;;14.10;90.30;;;;;;4921059;28;20046;-81
2023/05/08 01:27:35;;;;;;;128.90;61.72;;;14.10;90.30;;;;;;5005501;28;20037;-81
2023/05/08 01:30:22;;;;;;;136.63;61.20;;;14.10;90.30;;;;;;5005860;28;20021;-80
2023/05/08 01:33:22;;;;;;;134.68;62.03;;;14.10;90.50;;;;;;5000487;28;20112;-80
2023/05/08 01:36:04;;;;;;;129.05;55.70;;;14.10;90.60;;;;;;5002126;28;20022;-81
2023/05/08 01:38:51;;;;;;;129.43;59.67;;;14.10;90.60;;;;;;5001186;28;20037;-80
2023/05/08 01:41:30;;;;;;;128.65;58.35;;;14.10;90.50;;;;;;4985241;28;20038;-80
2023/05/08 01:44:18;;;;;;;143.68;60.60;;;14.10;90.50;;;;;;5003955;28;20520;-80
2023/05/08 01:46:48;;;;;;;143.63;60.65;;;14.10;90.60;;;;;;5004263;28;20045;-81
2023/05/08 01:49:25;;;;;;;131.27;59.13;;;14.10;90.60;;;;;;5004792;28;20147;-80
2023/05/08 01:51:57;;;;;;;140.80;58.45;;;14.10;90.70;;;;;;4996887;28;20137;-81
2023/05/08 01:54:27;;;;;;;132.13;58.75;;;14.10;90.70;;;;;;4999975;28;20038;-81
2023/05/08 01:56:56;;;;;;;144.68;61.60;;;14.10;90.60;;;;;;5003142;28;20037;-80
2023/05/08 01:59:23;;;;;;;137.07;60.30;;;14.10;90.60;;;;;;5002774;28;20030;-80
2023/05/08 02:01:55;;;;;;;133.02;59.55;;;14.20;90.60;;;;;;5001467;28;20088;-81
2023/05/08 02:04:22;;;;;;;150.05;61.90;;;14.20;90.60;;;;;;4987666;28;20638;-80
2023/05/08 02:06:50;;;;;;;136.43;60.78;;;14.20;90.50;;;;;;5003629;28;20050;-80
2023/05/08 02:09:16;;;;;;;129.57;60.20;;;14.20;90.60;;;;;;5004480;28;20522;-80
2023/05/08 02:11:43;;;;;;;124.75;59.80;;;14.30;90.50;;;;;;4997274;28;20049;-82
2023/05/08 02:14:12;;;;;;;130.02;59.50;;;14.30;90.40;;;;;;5001409;28;20065;-82
2023/05/08 02:16:41;;;;;;;132.65;60.80;;;14.30;90.50;;;;;;4997114;28;20104;-81
2023/05/08 02:19:08;;;;;;;124.95;60.08;;;14.20;90.50;;;;;;5010162;28;20026;-82
2023/05/08 02:21:35;;;;;;;129.60;60.55;;;14.20;90.50;;;;;;5002971;28;20025;-80
2023/05/08 02:24:03;;;;;;;128.57;60.65;;;14.20;90.60;;;;;;4998033;28;20034;-79
2023/05/08 02:26:30;;;;;;;123.75;58.50;;;14.20;90.50;;;;;;4997820;28;20048;-81
2023/05/08 02:28:57;;;;;;;116.57;56.38;;;14.20;90.60;;;;;;5000998;28;20026;-80
2023/05/08 02:31:23;;;;;;;120.75;58.85;;;14.30;90.60;;;;;;4988988;28;20046;-82
2023/05/08 02:33:51;;;;;;;105.85;53.20;;;14.20;90.40;;;;;;5001465;28;20124;-81
2023/05/08 02:36:18;;;;;;;115.38;56.53;;;14.10;90.70;;;;;;5006914;28;20079;-80
2023/05/08 02:38:47;;;;;;;111.78;53.55;;;14.10;90.60;;;;;;5001511;28;20061;-81
2023/05/08 02:41:14;;;;;;;107.18;52.22;;;14.10;90.80;;;;;;5005699;28;20562;-82
2023/05/08 02:43:40;;;;;;;103.88;52.40;;;14.10;90.90;;;;;;5003100;28;20045;-81
2023/05/08 02:46:17;;;;;;;92.90;48.25;;;14.20;90.70;;;;;;5001982;28;20038;-82
2023/05/08 02:49:03;;;;;;;105.80;50.38;;;14.10;90.80;;;;;;4982453;28;20052;-81
2023/05/08 02:51:58;;;;;;;113.03;55.20;;;14.20;90.80;;;;;;5002663;28;20418;-81
2023/05/08 02:54:33;;;;;;;;;;;14.20;90.70;;;;;;5004637;28;20061;-80
2023/05/08 02:57:05;;;;;;;100.80;49.78;;;14.20;90.50;;;;;;5002312;28;19923;-81
2023/05/08 02:59:38;;;;;;;102.93;50.42;;;14.20;90.50;;;;;;4999199;28;20483;-82
2023/05/08 03:02:15;;;;;;;97.70;49.77;;;14.20;90.40;;;;;;5006475;28;20064;-81
2023/05/08 03:04:54;;;;;;;98.78;46.75;;;14.20;90.50;;;;;;5001820;28;20057;-80
2023/05/08 03:07:24;;;;;;;100.68;50.58;;;14.20;90.60;;;;;;5001987;28;20246;-81
2023/05/08 03:09:57;;;;;;;103.65;52.13;;;14.20;90.70;;;;;;4998011;28;20029;-80
2023/05/08 03:12:27;;;;;;;100.18;50.58;;;14.20;90.60;;;;;;5000185;28;20037;-82
2023/05/08 03:15:06;;;;;;;96.50;49.42;;;14.20;90.40;;;;;;4998501;28;20057;-80
2023/05/08 03:17:34;;;;;;;103.97;53.65;;;14.10;90.50;;;;;;5003024;28;20037;-81
2023/05/08 03:20:04;;;;;;;106.53;52.10;;;14.20;90.50;;;;;;5002275;28;20105;-80
2023/05/08 03:22:34;;;;;;;98.55;50.35;;;14.20;90.50;;;;;;5004116;28;21767;-80
2023/05/08 03:25:03;;;;;;;96.47;50.58;;;14.20;90.50;;;;;;5004467;28;20033;-82
2023/05/08 03:27:30;;;;;;;96.80;50.05;;;14.20;90.50;;;;;;4988239;28;20137;-81
2023/05/08 03:29:58;;;;;;;89.55;46.03;;;14.20;90.40;;;;;;4999414;28;20029;-82
2023/05/08 03:32:26;;;;;;;86.70;45.53;;;14.20;90.40;;;;;;4982053;28;20042;-81
2023/05/08 03:34:53;;;;;;;90.38;46.88;;;14.10;90.20;;;;;;5002399;28;20465;-80
2023/05/08 03:37:18;;;;;;;83.50;46.45;;;14.10;90.30;;;;;;4983429;28;20482;-80
2023/05/08 03:39:44;;;;;;;88.85;47.10;;;14.10;90.30;;;;;;4983826;28;20056;-81
2023/05/08 03:42:19;;;;;;;91.10;47.28;;;14.10;90.10;;;;;;5002078;28;20049;-81
2023/05/08 03:44:56;;;;;;;94.10;48.97;;;14.00;90.30;;;;;;5001677;28;20022;-80
2023/05/08 03:47:24;;;;;;;90.30;46.33;;;14.00;90.40;;;;;;4985178;28;20056;-79
2023/05/08 03:49:51;;;;;;;86.43;46.75;;;14.10;90.30;;;;;;4993097;28;20104;-80
2023/05/08 03:52:17;;;;;;;89.53;46.83;;;13.90;90.30;;;;;;4981802;28;20133;-79
2023/05/08 03:54:43;;;;;;;91.53;46.55;;;14.00;90.40;;;;;;5005619;28;20124;-81
2023/05/08 03:57:08;;;;;;;94.70;48.05;;;14.10;90.50;;;;;;5000186;28;20073;-80
2023/05/08 03:59:43;;;;;;;93.30;47.72;;;14.10;90.50;;;;;;5003110;28;20422;-81
2023/05/08 04:02:19;;;;;;;85.90;45.72;;;14.10;90.50;;;;;;4998912;28;20045;-81
2023/05/08 04:04:49;;;;;;;96.40;46.33;;;14.10;90.40;;;;;;4996908;28;20038;-82
2023/05/08 04:07:31;;;;;;;86.43;45.08;;;14.10;90.30;;;;;;4992827;28;20065;-81
2023/05/08 04:10:12;;;;;;;89.03;44.40;;;14.10;90.30;;;;;;4995829;28;20037;-81
2023/05/08 04:12:49;;;;;;;85.55;44.42;;;14.20;90.30;;;;;;5003592;28;20041;-80
2023/05/08 04:15:24;;;;;;;70.20;40.25;;;14.20;90.30;;;;;;4995423;28;20091;-80
2023/05/08 04:18:03;;;;;;;71.13;39.53;;;14.20;90.20;;;;;;5002219;28;20820;-80
2023/05/08 04:20:32;;;;;;;69.43;39.38;;;14.20;90.00;;;;;;5008022;28;20021;-82
2023/05/08 04:22:58;;;;;;;66.18;37.42;;;14.20;89.90;;;;;;4988569;28;20109;-80
2023/05/08 04:25:25;;;;;;;71.40;39.40;;;14.20;89.90;;;;;;5005266;28;20026;-81
2023/05/08 04:27:51;;;;;;;66.18;37.47;;;14.20;90.00;;;;;;5013101;28;20049;-80
2023/05/08 04:30:17;;;;;;;67.40;36.95;;;14.10;89.80;;;;;;5005450;28;20026;-81
2023/05/08 04:32:43;;;;;;;64.88;37.53;;;14.10;89.90;;;;;;5009360;28;20042;-80
2023/05/08 04:35:10;;;;;;;67.90;37.42;;;14.10;89.70;;;;;;5000841;28;20025;-81
2023/05/08 04:37:35;;;;;;;66.90;36.53;;;14.10;89.70;;;;;;5003158;28;20511;-79
2023/05/08 04:40:03;;;;;;;69.53;38.13;;;14.10;89.60;;;;;;4999778;28;20030;-81
2023/05/08 04:42:29;;;;;;;64.40;37.28;;;14.10;89.70;;;;;;5000121;28;20042;-82
2023/05/08 04:44:54;;;;;;;67.50;37.70;;;14.10;89.90;;;;;;5008729;28;20486;-79
2023/05/08 04:47:20;;;;;;;68.95;39.55;;;14.20;89.90;;;;;;5005114;28;20049;-81
2023/05/08 04:49:46;;;;;;;70.32;38.28;;;14.20;89.90;;;;;;5001848;28;20650;-81
2023/05/08 04:52:12;;;;;;;72.22;39.15;;;14.20;89.90;;;;;;5000419;28;20387;-81
2023/05/08 04:54:38;;;;;;;63.97;36.90;;;14.20;89.90;;;;;;4993953;28;20522;-82
2023/05/08 04:57:06;;;;;;;59.05;34.22;;;14.20;90.10;;;;;;4995528;28;20045;-81
2023/05/08 04:59:31;;;;;;;64.20;33.20;;;14.20;90.00;;;;;;4994168;28;20103;-79
2023/05/08 05:01:57;;;;;;;58.55;33.25;;;14.20;90.00;;;;;;5001232;28;20038;-81
2023/05/08 05:04:23;;;;;;;55.70;31.50;;;14.20;90.10;;;;;;4985457;28;20620;-80
2023/05/08 05:06:49;;;;;;;61.00;34.05;;;14.20;90.00;;;;;;5005246;28;20466;-82
2023/05/08 05:09:15;;;;;;;51.50;32.45;;;14.20;90.00;;;;;;5004146;28;20033;-78
2023/05/08 05:11:40;;;;;;;51.67;30.65;;;14.20;89.90;;;;;;4995211;28;20046;-79
2023/05/08 05:14:06;;;;;;;51.67;32.33;;;14.30;89.90;;;;;;5003598;28;20104;-79
2023/05/08 05:16:32;;;;;;;54.90;32.13;;;14.20;89.90;;;;;;5003533;28;20129;-79
2023/05/08 05:18:58;;;;;;;49.22;29.65;;;14.20;89.70;;;;;;5003322;28;20030;-81
2023/05/08 05:21:24;;;;;;;50.17;29.02;;;14.10;89.50;;;;;;5002925;28;20065;-79
2023/05/08 05:23:50;;;;;;;60.13;29.65;;;14.10;89.50;;;;;;5001035;28;20033;-84
2023/05/08 05:26:16;;;;;;;46.40;27.83;;;14.10;89.70;;;;;;4995370;28;20038;-80
2023/05/08 05:28:42;;;;;;;45.22;27.85;;;14.10;89.90;;;;;;5003091;28;20349;-82
2023/05/08 05:31:07;;;;;;;45.28;28.25;;;14.10;89.80;;;;;;5007945;28;20041;-83
2023/05/08 05:33:33;;;;;;;55.00;29.15;;;14.10;89.80;;;;;;5004397;28;20307;-80
2023/05/08 05:35:59;;;;;;;45.42;28.98;;;14.00;89.60;;;;;;4993652;28;20030;-79
2023/05/08 05:38:25;;;;;;;49.15;29.63;;;14.00;89.40;;;;;;5005943;28;20088;-81
2023/05/08 05:40:51;;;;;;;49.78;29.50;;;14.00;89.50;;;;;;5002649;28;20033;-86
2023/05/08 05:43:16;;;;;;;50.17;29.48;;;14.00;89.80;;;;;;5002496;28;20034;-84
2023/05/08 05:45:42;;;;;;;49.22;29.17;;;14.10;89.70;;;;;;5000428;28;20035;-82
2023/05/08 05:48:08;;;;;;;40.35;25.40;;;14.10;89.70;;;;;;5002281;28;20023;-80
2023/05/08 05:50:33;;;;;;;40.75;26.52;;;13.90;89.30;;;;;;5000983;28;20029;-82
2023/05/08 05:52:59;;;;;;;38.80;24.85;;;14.00;89.60;;;;;;5000116;28;20026;-80
2023/05/08 05:55:25;;;;;;;42.30;25.92;;;14.00;89.70;;;;;;4994978;28;20435;-80
2023/05/08 05:57:51;;;;;;;38.05;23.73;;;14.00;89.80;;;;;;4999539;28;20088;-79
2023/05/08 06:00:17;;;;;;;38.35;23.63;;;14.00;89.70;;;;;;4987803;28;20061;-82
2023/05/08 06:02:43;;;;;;;40.05;24.02;;;14.10;89.70;;;;;;4997675;28;20704;-78
2023/05/08 06:05:09;;;;;;;33.70;21.65;;;14.10;89.60;;;;;;5000105;28;20137;-76
2023/05/08 06:07:35;;;;;;;34.92;22.58;;;14.10;89.60;;;;;;5001038;28;20038;-76
2023/05/08 06:10:01;;;;;;;34.72;22.08;;;14.10;89.30;;;;;;4996561;28;20024;-75
2023/05/08 06:12:27;;;;;;;34.35;21.13;;;14.10;88.90;;;;;;4999012;28;20431;-75
2023/05/08 06:14:53;;;;;;;30.85;20.15;;;14.10;88.90;;;;;;5003102;28;20560;-75
2023/05/08 06:17:19;;;;;;;32.70;20.50;;;14.10;89.10;;;;;;4984275;28;20088;-75
2023/05/08 06:19:49;;;;;;;32.08;19.52;;;14.10;88.90;;;;;;5001672;28;20034;-76
2023/05/08 06:22:22;;;;;;;30.20;19.42;;;14.10;88.70;;;;;;4999963;28;20073;-76
2023/05/08 06:24:48;;;;;;;27.42;18.02;;;14.10;88.60;;;;;;5000369;28;20034;-76
2023/05/08 06:27:13;;;;;;;26.70;18.77;;;14.10;88.60;;;;;;4999700;28;20037;-75
2023/05/08 06:29:39;;;;;;;26.98;18.75;;;14.20;88.80;;;;;;4990291;28;20032;-75
2023/05/08 06:32:05;;;;;;;28.67;19.83;;;14.20;88.70;;;;;;4996742;28;20048;-75
2023/05/08 06:34:31;;;;;;;29.42;19.17;;;14.20;88.80;;;;;;5001823;28;20037;-75
2023/05/08 06:36:56;;;;;;;28.50;19.10;;;14.20;88.40;;;;;;4998003;28;20034;-75
2023/05/08 06:39:22;;;;;;;24.70;16.98;;;14.10;88.30;;;;;;4998183;28;20426;-76
2023/05/08 06:41:48;;;;;;;25.50;16.65;;;14.10;88.20;;;;;;5001189;28;20080;-75
2023/05/08 06:44:14;;;;;;;27.50;18.90;;;14.20;88.70;;;;;;5002550;28;20048;-75
2023/05/08 06:46:40;;;;;;;25.00;17.60;;;14.30;88.20;;;;;;5002168;28;20045;-76
2023/05/08 06:49:06;;;;;;;24.45;16.88;;;14.20;88.40;;;;;;4994473;28;20367;-76
2023/05/08 06:51:34;;;;;;;25.83;16.38;;;14.20;88.10;;;;;;5000053;28;20042;-75
2023/05/08 06:54:00;;;;;;;24.65;16.80;;;14.30;88.30;;;;;;4999522;28;20022;-75
2023/05/08 06:56:26;;;;;;;26.48;16.17;;;14.40;88.30;;;;;;4999297;28;20042;-75
2023/05/08 06:58:51;;;;;;;22.27;15.45;;;14.40;88.00;;;;;;4997651;28;20021;-75
2023/05/08 07:01:17;;;;;;;20.70;14.20;;;14.30;87.40;;;;;;5000744;28;20132;-75
2023/05/08 07:03:46;;;;;;;18.23;12.95;;;14.30;87.70;;;;;;5001881;28;20029;-75
2023/05/08 07:06:11;;;;;;;18.05;11.93;;;14.30;87.50;;;;;;4995442;28;20046;-75
2023/05/08 07:08:37;;;;;;;17.40;11.73;;;14.30;87.30;;;;;;4985132;28;20041;-74
2023/05/08 07:11:03;;;;;;;17.23;11.52;;;14.30;87.40;;;;;;4996400;28;20042;-75
2023/05/08 07:13:30;;;;;;;15.75;11.48;;;14.30;87.00;;;;;;4997954;28;20022;-74
2023/05/08 07:15:56;;;;;;;17.73;12.00;;;14.30;87.10;;;;;;4999172;28;20034;-74
2023/05/08 07:18:21;;;;;;;15.07;10.07;;;14.40;87.00;;;;;;5002156;28;20571;-74
2023/05/08 07:20:47;;;;;;;16.33;11.40;;;14.40;87.10;;;;;;4999141;28;20045;-75
2023/05/08 07:23:13;;;;;;;14.45;10.35;;;14.50;86.70;;;;;;4999747;28;20378;-74
2023/05/08 07:25:38;;;;;;;15.23;9.90;;;14.60;86.60;;;;;;5001850;28;20445;-75
2023/05/08 07:28:04;;;;;;;14.52;10.90;;;14.60;85.80;;;;;;4999019;28;20482;-75
2023/05/08 07:30:30;;;;;;;15.63;10.38;;;14.60;85.40;;;;;;5004298;28;20113;-76
2023/05/08 07:32:56;;;;;;;13.80;10.15;;;14.50;85.80;;;;;;4995189;28;20498;-74
2023/05/08 07:35:21;;;;;;;14.93;10.55;;;14.60;85.90;;;;;;4984166;28;20029;-75
2023/05/08 07:37:47;;;;;;;14.52;10.60;;;14.60;86.10;;;;;;4994912;28;20575;-75
2023/05/08 07:40:13;;;;;;;14.20;10.50;;;14.80;86.10;;;;;;4994883;28;20029;-73
2023/05/08 07:42:42;;;;;;;14.25;9.85;;;14.80;85.50;;;;;;4978733;28;20030;-75
2023/05/08 07:45:10;;;;;;;12.38;9.25;;;14.80;85.70;;;;;;4998422;28;20155;-78
2023/05/08 07:47:37;;;;;;;15.35;10.48;;;14.80;85.50;;;;;;4997564;28;21620;-75
2023/05/08 07:50:03;;;;;;;12.93;8.77;;;14.90;85.10;;;;;;4995660;28;20017;-75
2023/05/08 07:52:28;;;;;;;14.73;10.02;;;14.90;85.20;;;;;;4998049;28;20033;-77
2023/05/08 07:54:54;;;;;;;13.55;9.57;;;14.80;84.90;;;;;;5002409;28;20030;-75
2023/05/08 07:57:20;;;;;;;13.20;10.05;;;14.90;85.30;;;;;;5003986;28;20052;-73
2023/05/08 07:59:45;;;;;;;13.02;9.65;;;15.00;85.30;;;;;;5008133;28;20046;-74
2023/05/08 08:02:11;;;;;;;13.45;9.45;;;15.00;84.70;;;;;;5002547;28;20029;-75
2023/05/08 08:04:38;;;;;;;12.65;8.98;;;15.00;84.40;;;;;;4995085;28;20115;-75
2023/05/08 08:07:04;;;;;;;12.85;9.25;;;15.10;84.30;;;;;;5002171;28;20041;-75
2023/05/08 08:09:30;;;;;;;13.18;9.32;;;15.00;84.40;;;;;;5007570;28;20034;-74
2023/05/08 08:11:55;;;;;;;13.50;9.85;;;15.00;84.60;;;;;;5005655;28;20046;-74
2023/05/08 08:14:21;;;;;;;12.23;9.45;;;15.00;84.50;;;;;;5008060;28;20083;-75
2023/05/08 08:16:47;;;;;;;13.68;10.82;;;15.10;84.80;;;;;;5005963;28;20030;-75
2023/05/08 08:19:12;;;;;;;14.50;9.60;;;15.10;84.20;;;;;;5008140;28;20644;-74
2023/05/08 08:21:45;;;;;;;14.10;10.00;;;15.10;83.80;;;;;;4991965;28;20061;-73
2023/05/08 08:24:10;;;;;;;14.15;10.75;;;15.10;84.10;;;;;;5004938;28;20041;-74
2023/05/08 08:26:36;;;;;;;13.60;10.23;;;15.10;83.60;;;;;;5003968;28;20046;-75
2023/05/08 08:29:02;;;;;;;14.75;10.82;;;15.20;84.10;;;;;;4982348;28;20364;-74
2023/05/08 08:31:28;;;;;;;14.20;10.27;;;15.30;84.10;;;;;;5008898;28;20338;-76
2023/05/08 08:33:53;;;;;;;17.05;11.18;;;15.30;83.50;;;;;;5001974;28;20034;-76
2023/05/08 08:36:19;;;;;;;14.45;10.52;;;15.50;83.00;;;;;;4986065;28;20097;-75
2023/05/08 08:38:45;;;;;;;15.77;11.38;;;15.40;83.10;;;;;;5012745;28;20026;-74
2023/05/08 08:41:14;;;;;;;16.63;12.45;;;15.50;82.80;;;;;;5004358;28;20034;-75
2023/05/08 08:43:42;;;;;;;15.25;11.43;;;15.50;82.80;;;;;;5004309;28;20025;-75
2023/05/08 08:46:13;;;;;;;15.77;11.70;;;15.70;82.60;;;;;;5004320;28;20446;-74
2023/05/08 08:48:46;;;;;;;14.75;11.55;;;15.80;82.20;;;;;;5006434;28;20480;-73
2023/05/08 08:51:23;;;;;;;17.10;12.10;;;15.90;81.80;;;;;;4989010;28;20042;-74
2023/05/08 08:54:07;;;;;;;16.17;12.45;;;15.90;81.30;;;;;;4997168;28;20351;-74
2023/05/08 08:56:36;;;;;;;16.38;12.07;;;15.80;82.10;;;;;;4997989;28;20038;-74
2023/05/08 08:59:04;;;;;;;16.67;13.13;;;15.80;82.00;;;;;;4993229;28;20057;-74
2023/05/08 09:01:34;;;;;;;16.63;12.00;;;15.80;82.20;;;;;;5004836;28;20049;-74
2023/05/08 09:04:01;;;;;;;17.75;13.63;;;15.90;81.60;;;;;;5006632;28;20023;-74
2023/05/08 09:06:27;;;;;;;18.98;13.88;;;15.80;81.80;;;;;;5005264;28;20034;-72
2023/05/08 09:08:57;;;;;;;19.77;14.75;;;16.00;82.00;;;;;;5003986;28;20044;-74
2023/05/08 09:11:26;;;;;;;20.60;14.18;;;15.90;81.70;;;;;;5007788;28;20075;-73
2023/05/08 09:13:54;;;;;;;20.38;14.75;;;15.90;81.70;;;;;;5004012;28;20034;-73
2023/05/08 09:16:20;;;;;;;22.73;15.38;;;15.80;81.80;;;;;;5003320;28;20489;-73
2023/05/08 09:18:46;;;;;;;20.33;14.65;;;15.80;82.20;;;;;;5010533;28;20021;-73
2023/05/08 09:21:12;;;;;;;19.45;14.38;;;15.80;82.20;;;;;;5001808;28;20034;-73
2023/05/08 09:24:00;;;;;;;19.65;14.50;;;15.70;82.40;;;;;;4999157;28;20030;-72
2023/05/08 09:26:40;;;;;;;19.23;14.00;;;15.80;81.90;;;;;;5006497;28;20419;-73
2023/05/08 09:29:08;;;;;;;20.20;14.65;;;15.80;82.10;;;;;;5000971;28;20044;-73
2023/05/08 09:31:39;;;;;;;21.08;15.32;;;15.80;82.40;;;;;;5002015;28;20295;-73
2023/05/08 09:34:28;;;;;;;20.70;15.52;;;15.90;82.30;;;;;;5006768;28;20014;-73
2023/05/08 09:36:54;;;;;;;21.55;16.10;;;16.00;82.00;;;;;;5002352;28;20040;-73
2023/05/08 09:39:24;;;;;;;21.90;15.35;;;16.10;81.70;;;;;;5007093;28;20014;-73
2023/05/08 09:41:58;;;;;;;22.05;15.73;;;16.00;81.80;;;;;;5002941;28;20041;-73
2023/05/08 09:44:23;;;;;;;22.33;15.70;;;16.00;81.90;;;;;;5007140;28;20029;-77
2023/05/08 09:46:49;;;;;;;21.10;15.30;;;16.10;82.10;;;;;;5004304;28;20492;-74
2023/05/08 09:49:18;;;;;;;22.63;15.75;;;16.00;81.00;;;;;;4979099;28;20089;-73
2023/05/08 09:51:54;;;;;;;21.13;15.88;;;15.90;81.40;;;;;;5002521;28;20049;-75
2023/05/08 09:54:20;;;;;;;23.10;16.35;;;15.80;81.50;;;;;;5001736;28;20030;-74
2023/05/08 09:56:45;;;;;;;21.48;15.63;;;15.90;82.10;;;;;;5001227;28;20037;-73
2023/05/08 09:59:25;;;;;;;22.52;16.45;;;15.90;81.70;;;;;;5004814;28;20030;-74
2023/05/08 10:01:51;;;;;;;23.02;16.95;;;16.10;81.50;;;;;;5002089;28;20653;-73
2023/05/08 10:04:17;;;;;;;24.70;17.98;;;16.10;81.40;;;;;;4986760;28;20062;-74
2023/05/08 10:06:54;;;;;;;25.52;18.20;;;16.10;81.30;;;;;;5002815;28;20098;-73
2023/05/08 10:09:20;;;;;;;27.38;19.33;;;16.10;81.60;;;;;;5004039;28;20060;-74
2023/05/08 10:11:54;;;;;;;29.85;20.85;;;16.00;81.80;;;;;;4997509;28;20475;-74
2023/05/08 10:14:20;;;;;;;28.13;19.70;;;15.90;81.80;;;;;;4998489;28;20533;-73
2023/05/08 10:16:51;;;;;;;26.17;19.55;;;15.90;82.50;;;;;;5003281;28;20141;-74
2023/05/08 10:19:27;;;;;;;29.98;20.63;;;16.00;82.30;;;;;;5007117;28;20035;-73
2023/05/08 10:21:54;;;;;;;27.35;20.25;;;16.00;82.20;;;;;;4999876;28;20058;-73
2023/05/08 10:24:32;;;;;;;24.80;19.02;;;16.10;82.30;;;;;;5004846;28;20787;-74
2023/05/08 10:27:15;;;;;;;27.58;19.67;;;16.30;81.70;;;;;;4989034;28;20050;-73
2023/05/08 10:29:51;;;;;;;26.67;18.80;;;16.30;81.00;;;;;;5000783;28;20124;-74
2023/05/08 10:32:19;;;;;;;27.58;19.25;;;16.30;81.10;;;;;;4999962;28;20034;-74
2023/05/08 10:34:48;;;;;;;27.17;18.48;;;16.20;81.40;;;;;;4998073;28;20029;-73
2023/05/08 10:37:16;;;;;;;26.27;18.30;;;16.40;82.00;;;;;;4977723;28;20088;-73
2023/05/08 10:39:43;;;;;;;24.52;18.52;;;16.50;80.70;;;;;;5002360;28;20108;-73
2023/05/08 10:42:09;;;;;;;25.70;19.05;;;16.60;80.60;;;;;;5001526;28;20056;-73
2023/05/08 10:44:35;;;;;;;26.50;20.25;;;16.60;79.80;;;;;;5006170;28;20030;-74
2023/05/08 10:47:21;;;;;;;29.25;20.75;;;16.70;79.70;;;;;;5002326;28;20052;-74
2023/05/08 10:50:09;;;;;;;26.92;19.77;;;16.80;79.90;;;;;;4999368;28;20018;-73
2023/05/08 10:52:42;;;;;;;27.42;20.70;;;17.00;79.00;;;;;;5000597;28;20383;-73
2023/05/08 10:55:32;;;;;;;27.45;19.05;;;17.10;79.20;;;;;;4992898;28;20033;-75
2023/05/08 10:58:27;;;;;;;27.73;20.33;;;17.10;78.70;;;;;;4989411;28;20104;-76
2023/05/08 11:00:52;;;;;;;28.40;20.02;;;17.10;78.10;;;;;;4999948;28;20050;-76
2023/05/08 11:03:19;;;;;;;27.33;20.83;;;17.10;78.20;;;;;;5002220;28;20417;-76
2023/05/08 11:05:46;;;;;;;25.98;19.15;;;17.10;77.90;;;;;;5001717;28;20025;-76
2023/05/08 11:08:18;;;;;;;26.67;20.35;;;17.30;78.20;;;;;;5000729;28;20096;-76
2023/05/08 11:10:57;;;;;;;22.90;18.17;;;17.60;77.40;;;;;;5002612;28;20026;-76
2023/05/08 11:13:27;;;;;;;27.17;20.02;;;17.70;76.50;;;;;;5002077;28;20025;-75
2023/05/08 11:15:53;;;;;;;26.20;19.65;;;17.90;75.40;;;;;;4985236;28;20825;-75
2023/05/08 11:18:19;;;;;;;28.92;20.60;;;18.00;75.20;;;;;;5002592;28;20034;-74
2023/05/08 11:20:56;;;;;;;29.48;21.88;;;18.10;75.30;;;;;;5003121;28;20418;-74
2023/05/08 11:23:24;;;;;;;29.20;21.35;;;18.10;75.50;;;;;;5002955;28;20053;-75
2023/05/08 11:26:02;;;;;;;29.42;21.27;;;18.10;75.00;;;;;;5001380;28;20028;-73
2023/05/08 11:28:57;;;;;;;28.35;20.63;;;18.10;75.10;;;;;;4998772;28;20100;-73
2023/05/08 11:31:23;;;;;;;29.35;21.20;;;18.00;75.30;;;;;;5000686;28;20394;-76
2023/05/08 11:33:49;;;;;;;29.70;20.75;;;18.00;75.30;;;;;;4999544;28;20109;-76
2023/05/08 11:36:21;;;;;;;28.42;22.10;;;18.00;75.10;;;;;;5004771;28;20052;-77
2023/05/08 11:39:14;;;;;;;25.50;20.50;;;17.80;75.80;;;;;;4997469;28;20030;-76
2023/05/08 11:41:40;;;;;;;26.92;21.17;;;18.00;75.70;;;;;;4996920;28;20033;-75
2023/05/08 11:44:15;;;;;;;27.38;21.27;;;18.10;74.80;;;;;;4984898;28;20450;-76
2023/05/08 11:46:50;;;;;;;27.23;19.60;;;18.40;74.20;;;;;;5002014;28;20042;-78
2023/05/08 11:49:17;;;;;;;27.73;21.23;;;18.60;73.70;;;;;;5004668;28;20053;-76
2023/05/08 11:51:45;;;;;;;26.95;21.08;;;18.70;72.80;;;;;;5011921;28;20501;-75
2023/05/08 11:54:18;;;;;;;24.13;18.58;;;18.60;71.90;;;;;;5001962;28;20034;-75
2023/05/08 11:56:46;;;;;;;25.35;21.00;;;18.30;73.20;;;;;;5000768;28;20129;-76
2023/05/08 11:59:12;;;;;;;27.27;19.83;;;18.10;73.60;;;;;;4998941;28;20021;-77
2023/05/08 12:01:38;;;;;;;26.33;20.92;;;18.20;73.30;;;;;;4998698;28;20038;-76
2023/05/08 12:04:06;;;;;;;24.30;20.30;;;18.20;73.70;;;;;;5001747;28;20052;-77
2023/05/08 12:06:34;;;;;;;24.25;20.17;;;18.30;73.10;;;;;;4999260;28;20080;-77
2023/05/08 12:09:03;;;;;;;23.88;18.55;;;18.40;72.90;;;;;;5005959;28;20034;-76
2023/05/08 12:11:28;;;;;;;24.15;19.67;;;18.60;73.10;;;;;;5000700;28;20148;-75
2023/05/08 12:13:54;;;;;;;23.10;17.73;;;18.60;72.30;;;;;;5002925;28;20386;-77
2023/05/08 12:16:23;;;;;;;22.20;17.73;;;18.60;71.40;;;;;;4998160;28;20033;-76
2023/05/08 12:18:51;;;;;;;22.48;18.48;;;18.80;71.70;;;;;;5000586;28;20430;-76
2023/05/08 12:21:16;;;;;;;22.48;18.77;;;18.70;71.60;;;;;;5001015;28;20407;-74
2023/05/08 12:23:43;;;;;;;27.25;20.80;;;18.60;72.30;;;;;;5004768;28;20446;-75
2023/05/08 12:26:09;;;;;;;24.58;20.13;;;18.50;73.20;;;;;;4997993;28;20046;-76
2023/05/08 12:28:34;;;;;;;29.92;22.92;;;18.50;73.50;;;;;;5003557;28;20025;-75
2023/05/08 12:31:01;;;;;;;29.17;22.60;;;18.40;73.50;;;;;;4993849;28;20049;-76
2023/05/08 12:33:27;;;;;;;28.08;22.30;;;18.50;73.90;;;;;;4999938;28;20022;-75
2023/05/08 12:35:54;;;;;;;27.00;21.83;;;18.60;73.50;;;;;;4995940;28;20026;-77